createdAt,value
2022-08-19T00:02:17.289Z,14.80
2022-08-19T00:05:09.645Z,14.80
2022-08-19T00:08:02.376Z,14.00
2022-08-19T00:10:53.628Z,15.73
2022-08-19T00:13:46.769Z,14.80
2022-08-19T00:16:38.647Z,14.97
2022-08-19T00:19:30.151Z,14.20
2022-08-19T00:22:21.457Z,16.07
2022-08-19T00:25:14.240Z,15.80
2022-08-19T00:28:07.158Z,15.20
2022-08-19T00:30:58.408Z,16.13
2022-08-19T00:33:51.483Z,15.10
2022-08-19T00:36:42.884Z,15.73
2022-08-19T00:39:34.353Z,15.60
2022-08-19T00:42:29.410Z,16.63
2022-08-19T00:45:22.710Z,17.83
2022-08-19T00:48:14.822Z,18.47
2022-08-19T00:51:07.591Z,17.83
2022-08-19T00:53:59.588Z,18.37
2022-08-19T00:56:51.671Z,18.00
2022-08-19T01:00:01.026Z,15.67
2022-08-19T01:02:54.352Z,16.20
2022-08-19T01:05:46.766Z,16.73
2022-08-19T01:08:38.330Z,15.33
2022-08-19T01:11:29.925Z,14.27
2022-08-19T01:14:21.428Z,14.80
2022-08-19T01:17:14.688Z,15.53
2022-08-19T01:20:06.415Z,15.80
2022-08-19T01:23:00.002Z,14.83
2022-08-19T01:25:52.692Z,14.87
2022-08-19T01:28:44.607Z,15.37
2022-08-19T01:31:38.045Z,15.90
2022-08-19T01:34:29.539Z,15.87
2022-08-19T01:37:24.977Z,15.57
2022-08-19T01:40:21.389Z,16.27
2022-08-19T01:43:14.729Z,17.03
2022-08-19T01:46:06.225Z,18.13
2022-08-19T01:48:57.574Z,18.13
2022-08-19T01:51:50.446Z,20.43
2022-08-19T01:54:41.801Z,18.83
2022-08-19T01:57:34.483Z,18.23
2022-08-19T02:00:26.618Z,17.33
2022-08-19T02:03:18.590Z,20.00
2022-08-19T02:06:09.747Z,20.07
2022-08-19T02:09:02.518Z,19.00
2022-08-19T02:11:54.444Z,18.87
2022-08-19T02:14:47.283Z,20.50
2022-08-19T02:17:38.495Z,20.23
2022-08-19T02:20:29.591Z,19.40
2022-08-19T02:23:21.706Z,17.70
2022-08-19T02:26:13.624Z,18.50
2022-08-19T02:29:05.254Z,17.83
2022-08-19T02:31:58.202Z,16.37
2022-08-19T02:34:50.267Z,16.47
2022-08-19T02:37:59.057Z,17.47
2022-08-19T02:40:52.634Z,17.30
2022-08-19T02:44:30.162Z,16.53
2022-08-19T02:46:56.470Z,16.43
2022-08-19T02:49:50.727Z,16.37
2022-08-19T02:52:42.097Z,16.80
2022-08-19T02:55:45.794Z,16.07
2022-08-19T02:58:37.480Z,17.60
2022-08-19T03:01:30.858Z,18.13
2022-08-19T03:04:22.006Z,17.43
2022-08-19T03:07:17.372Z,18.50
2022-08-19T03:10:09.391Z,18.90
2022-08-19T03:13:00.963Z,18.97
2022-08-19T03:15:56.086Z,18.03
2022-08-19T03:18:47.484Z,16.90
2022-08-19T03:21:38.820Z,18.20
2022-08-19T03:24:31.652Z,17.90
2022-08-19T03:27:23.394Z,19.43
2022-08-19T03:30:15.192Z,17.90
2022-08-19T03:33:18.261Z,17.93
2022-08-19T03:36:21.588Z,17.90
2022-08-19T03:39:13.125Z,18.30
2022-08-19T03:42:38.237Z,19.37
2022-08-19T03:45:17.757Z,18.37
2022-08-19T03:48:09.525Z,19.33
2022-08-19T03:51:01.277Z,18.13
2022-08-19T03:53:52.632Z,19.47
2022-08-19T03:56:44.668Z,18.47
2022-08-19T03:59:37.923Z,18.23
2022-08-19T04:02:29.388Z,17.63
2022-08-19T04:05:20.409Z,17.90
2022-08-19T04:08:23.248Z,17.63
2022-08-19T04:11:15.769Z,18.50
2022-08-19T04:14:07.267Z,19.40
2022-08-19T04:17:00.318Z,17.97
2022-08-19T04:19:51.528Z,18.47
2022-08-19T04:22:42.711Z,19.43
2022-08-19T04:25:36.732Z,17.60
2022-08-19T04:28:28.153Z,17.77
2022-08-19T04:31:20.553Z,18.57
2022-08-19T04:34:14.345Z,18.10
2022-08-19T04:37:08.861Z,17.43
2022-08-19T04:40:17.461Z,17.60
2022-08-19T04:43:09.606Z,16.80
2022-08-19T04:46:06.019Z,18.67
2022-08-19T04:48:58.771Z,18.17
2022-08-19T04:51:52.430Z,17.67
2022-08-19T04:54:43.691Z,17.73
2022-08-19T04:57:35.110Z,18.13
2022-08-19T05:00:26.135Z,16.23
2022-08-19T05:03:18.048Z,17.17
2022-08-19T05:06:11.439Z,17.10
2022-08-19T05:09:05.123Z,16.77
2022-08-19T05:11:57.009Z,16.30
2022-08-19T05:14:48.929Z,16.53
2022-08-19T05:18:00.125Z,16.40
2022-08-19T05:21:09.125Z,17.80
2022-08-19T05:24:00.323Z,15.17
2022-08-19T05:26:53.341Z,17.10
2022-08-19T05:29:44.986Z,16.60
2022-08-19T05:32:36.186Z,16.70
2022-08-19T05:35:27.443Z,17.00
2022-08-19T05:38:18.820Z,16.40
2022-08-19T05:41:10.484Z,15.73
2022-08-19T05:44:07.019Z,16.43
2022-08-19T05:46:58.750Z,15.70
2022-08-19T05:49:51.750Z,17.00
2022-08-19T05:52:45.945Z,17.13
2022-08-19T05:55:42.187Z,16.63
2022-08-19T05:58:34.012Z,16.63
2022-08-19T06:01:27.622Z,17.20
2022-08-19T06:04:20.370Z,16.43
2022-08-19T06:07:13.604Z,16.63
2022-08-19T06:10:08.327Z,17.27
2022-08-19T06:12:59.705Z,16.93
2022-08-19T06:15:51.021Z,17.57
2022-08-19T06:18:45.148Z,17.80
2022-08-19T06:21:38.029Z,17.37
2022-08-19T06:24:30.236Z,17.97
2022-08-19T06:27:21.762Z,18.00
2022-08-19T06:30:13.589Z,18.27
2022-08-19T06:33:04.670Z,17.27
2022-08-19T06:35:57.144Z,19.97
2022-08-19T06:38:48.281Z,17.67
2022-08-19T06:41:47.142Z,19.10
2022-08-19T06:44:43.782Z,18.23
2022-08-19T06:47:39.513Z,19.97
2022-08-19T06:50:30.509Z,18.80
2022-08-19T06:53:23.215Z,18.60
2022-08-19T06:56:15.816Z,19.80
2022-08-19T06:59:08.161Z,18.80
2022-08-19T07:01:59.765Z,19.63
2022-08-19T07:04:52.694Z,19.70
2022-08-19T07:07:44.815Z,20.93
2022-08-19T07:10:44.183Z,20.43
2022-08-19T07:13:37.577Z,20.70
2022-08-19T07:16:29.712Z,20.47
2022-08-19T07:19:21.306Z,20.90
2022-08-19T07:22:13.138Z,20.03
2022-08-19T07:25:05.484Z,20.23
2022-08-19T07:27:58.232Z,20.13
2022-08-19T07:30:52.787Z,20.17
2022-08-19T07:33:44.373Z,20.97
2022-08-19T07:36:36.808Z,20.47
2022-08-19T07:39:29.467Z,21.17
2022-08-19T07:42:22.017Z,21.83
2022-08-19T07:45:16.616Z,19.97
2022-08-19T07:48:08.227Z,20.57
2022-08-19T07:51:02.778Z,21.53
2022-08-19T07:53:53.939Z,22.17
2022-08-19T07:56:45.185Z,22.33
2022-08-19T07:59:37.137Z,21.87
2022-08-19T08:02:29.650Z,20.60
2022-08-19T08:05:41.767Z,21.67
2022-08-19T08:08:54.625Z,22.40
2022-08-19T08:11:49.730Z,22.60
2022-08-19T08:14:44.861Z,21.77
2022-08-19T08:17:49.121Z,24.50
2022-08-19T08:20:42.569Z,23.33
2022-08-19T08:23:34.186Z,23.87
2022-08-19T08:26:26.023Z,23.73
2022-08-19T08:29:17.511Z,24.77
2022-08-19T08:32:14.878Z,27.13
2022-08-19T08:35:09.245Z,23.53
2022-08-19T08:38:00.667Z,23.50
2022-08-19T08:40:54.442Z,24.50
2022-08-19T08:43:48.207Z,23.47
2022-08-19T08:46:41.961Z,24.63
2022-08-19T08:49:39.241Z,24.63
2022-08-19T08:52:36.261Z,22.13
2022-08-19T08:55:36.734Z,23.53
2022-08-19T08:58:31.716Z,21.63
2022-08-19T09:01:23.480Z,23.40
2022-08-19T09:04:16.857Z,23.00
2022-08-19T09:07:34.491Z,22.90
2022-08-19T09:10:30.690Z,20.90
2022-08-19T09:13:27.232Z,20.93
2022-08-19T09:16:27.973Z,21.33
2022-08-19T09:19:22.477Z,21.37
2022-08-19T09:22:14.307Z,19.20
2022-08-19T09:25:24.706Z,20.53
2022-08-19T09:28:22.526Z,20.37
2022-08-19T09:31:19.744Z,19.87
2022-08-19T09:34:21.214Z,19.33
2022-08-19T09:37:13.405Z,19.30
2022-08-19T09:40:08.099Z,22.37
2022-08-19T09:43:11.446Z,18.27
2022-08-19T09:46:07.267Z,20.03
2022-08-19T09:49:06.027Z,19.30
2022-08-19T09:51:58.011Z,17.60
2022-08-19T09:54:51.888Z,19.03
2022-08-19T09:57:43.335Z,18.90
2022-08-19T10:00:34.571Z,18.93
2022-08-19T10:03:30.220Z,17.23
2022-08-19T10:06:46.253Z,17.80
2022-08-19T10:09:35.152Z,18.07
2022-08-19T10:12:26.457Z,18.73
2022-08-19T10:15:29.162Z,17.93
2022-08-19T10:18:22.151Z,18.07
2022-08-19T10:21:16.249Z,17.63
2022-08-19T10:24:09.516Z,18.27
2022-08-19T10:27:01.470Z,17.93
2022-08-19T10:29:53.529Z,19.80
2022-08-19T10:32:46.935Z,17.70
2022-08-19T10:35:42.565Z,18.77
2022-08-19T10:38:54.805Z,19.17
2022-08-19T10:41:47.915Z,18.70
2022-08-19T10:44:39.129Z,18.87
2022-08-19T10:47:31.786Z,17.80
2022-08-19T10:50:40.705Z,18.00
2022-08-19T10:53:33.032Z,17.70
2022-08-19T10:56:43.233Z,18.10
2022-08-19T10:59:36.253Z,17.23
2022-08-19T11:02:27.621Z,18.07
2022-08-19T11:05:19.340Z,18.10
2022-08-19T11:08:22.664Z,16.63
2022-08-19T11:11:15.289Z,17.17
2022-08-19T11:14:08.061Z,17.10
2022-08-19T11:16:59.583Z,17.47
2022-08-19T11:19:51.015Z,15.73
2022-08-19T11:22:43.299Z,17.53
2022-08-19T11:25:35.532Z,16.83
2022-08-19T11:28:26.772Z,17.87
2022-08-19T11:31:20.427Z,17.13
2022-08-19T11:34:13.504Z,17.73
2022-08-19T11:37:06.836Z,16.47
2022-08-19T11:39:58.362Z,18.07
2022-08-19T11:46:08.872Z,15.63
2022-08-19T11:49:02.615Z,17.93
2022-08-19T11:51:54.484Z,15.60
2022-08-19T11:54:45.614Z,15.17
2022-08-19T11:57:36.839Z,16.27
2022-08-19T12:00:28.190Z,14.73
2022-08-19T12:03:19.506Z,16.50
2022-08-19T12:06:15.223Z,13.57
2022-08-19T12:09:08.321Z,13.77
2022-08-19T12:12:00.363Z,13.13
2022-08-19T12:14:57.468Z,13.17
2022-08-19T12:17:48.950Z,12.60
2022-08-19T12:20:40.752Z,14.57
2022-08-19T12:23:33.484Z,12.80
2022-08-19T12:26:25.432Z,12.23
2022-08-19T12:29:20.383Z,11.60
2022-08-19T12:32:14.541Z,11.10
2022-08-19T12:35:06.269Z,11.30
2022-08-19T12:37:57.863Z,11.93
2022-08-19T12:40:54.371Z,11.63
2022-08-19T12:43:49.246Z,12.20
2022-08-19T12:46:40.942Z,11.77
2022-08-19T12:49:53.365Z,12.40
2022-08-19T12:52:46.503Z,12.13
2022-08-19T12:55:37.701Z,11.77
2022-08-19T12:58:30.809Z,12.02
2022-08-19T13:01:22.763Z,13.93
2022-08-19T13:04:14.963Z,26.70
2022-08-19T13:07:06.212Z,15.20
2022-08-19T13:09:57.758Z,13.77
2022-08-19T13:12:51.096Z,13.15
2022-08-19T13:15:47.883Z,13.97
2022-08-19T13:18:39.221Z,12.57
2022-08-19T13:21:30.969Z,13.05
2022-08-19T13:24:22.492Z,12.68
2022-08-19T13:27:18.564Z,16.10
2022-08-19T13:30:28.822Z,12.10
2022-08-19T13:33:21.729Z,13.17
2022-08-19T13:36:12.830Z,13.40
2022-08-19T13:39:04.482Z,12.65
2022-08-19T13:42:02.188Z,17.50
2022-08-19T13:44:55.543Z,12.43
2022-08-19T13:47:47.793Z,13.15
2022-08-19T13:50:42.580Z,13.57
2022-08-19T13:53:34.118Z,14.53
2022-08-19T13:56:26.501Z,13.33
2022-08-19T13:59:20.080Z,13.60
2022-08-19T14:02:11.796Z,12.93
2022-08-19T14:05:05.327Z,12.67
2022-08-19T14:07:58.333Z,14.00
2022-08-19T14:10:49.786Z,13.70
2022-08-19T14:13:41.059Z,13.23
2022-08-19T14:16:32.420Z,14.70
2022-08-19T14:19:23.926Z,14.10
2022-08-19T14:22:15.118Z,12.33
2022-08-19T14:25:15.949Z,12.67
2022-08-19T14:28:07.780Z,13.23
2022-08-19T14:30:59.353Z,12.07
2022-08-19T14:33:51.390Z,12.60
2022-08-19T14:36:42.848Z,11.67
2022-08-19T14:39:34.665Z,12.50
2022-08-19T14:42:27.325Z,11.20
2022-08-19T14:45:18.761Z,10.70
2022-08-19T14:48:12.578Z,12.50
2022-08-19T14:51:10.960Z,11.80
2022-08-19T14:54:02.181Z,12.20
2022-08-19T14:56:53.514Z,11.87
2022-08-19T14:59:45.933Z,12.70
2022-08-19T15:02:37.566Z,11.53
2022-08-19T15:05:28.891Z,11.13
2022-08-19T15:08:20.088Z,11.03
2022-08-19T15:11:15.418Z,9.87
2022-08-19T15:14:08.048Z,11.23
2022-08-19T15:17:00.436Z,11.50
2022-08-19T15:19:52.161Z,11.70
2022-08-19T15:22:43.537Z,12.37
2022-08-19T15:25:35.361Z,11.70
2022-08-19T15:28:27.736Z,11.33
2022-08-19T15:31:28.019Z,12.57
2022-08-19T15:34:21.644Z,12.00
2022-08-19T15:37:12.830Z,11.63
2022-08-19T15:40:05.397Z,13.57
2022-08-19T15:42:58.864Z,13.03
2022-08-19T15:45:50.339Z,11.83
2022-08-19T15:48:41.564Z,13.93
2022-08-19T15:51:35.464Z,12.13
2022-08-19T15:54:27.423Z,12.27
2022-08-19T15:57:36.165Z,12.90
2022-08-19T16:00:47.128Z,12.63
2022-08-19T16:04:01.890Z,11.77
2022-08-19T16:06:55.659Z,11.77
2022-08-19T16:09:47.045Z,12.23
2022-08-19T16:12:39.292Z,11.90
2022-08-19T16:15:33.778Z,12.87
2022-08-19T16:18:26.109Z,12.30
2022-08-19T16:21:17.901Z,13.13
2022-08-19T16:24:12.144Z,12.80
2022-08-19T16:27:03.464Z,14.90
2022-08-19T16:29:54.786Z,20.60
2022-08-19T16:32:45.972Z,12.77
2022-08-19T16:35:37.255Z,14.17
2022-08-19T16:38:29.164Z,12.47
2022-08-19T16:41:22.402Z,13.37
2022-08-19T16:44:14.544Z,13.50
2022-08-19T16:47:05.765Z,14.27
2022-08-19T16:49:56.972Z,13.70
2022-08-19T16:52:48.229Z,15.10
2022-08-19T16:55:39.531Z,13.17
2022-08-19T16:58:34.486Z,13.73
2022-08-19T17:01:26.345Z,13.77
2022-08-19T17:04:17.475Z,13.40
2022-08-19T17:07:10.349Z,11.77
2022-08-19T17:10:02.159Z,12.00
2022-08-19T17:12:55.033Z,13.43
2022-08-19T17:15:48.137Z,12.93
2022-08-19T17:18:39.288Z,12.77
2022-08-19T17:21:32.050Z,12.43
2022-08-19T17:24:23.051Z,12.70
2022-08-19T17:27:14.253Z,12.17
2022-08-19T17:30:06.817Z,12.23
2022-08-19T17:32:59.666Z,10.50
2022-08-19T17:35:50.928Z,12.13
2022-08-19T17:38:42.753Z,10.33
2022-08-19T17:41:35.193Z,9.93
2022-08-19T17:44:26.513Z,9.63
2022-08-19T17:47:17.583Z,9.63
2022-08-19T17:50:13.032Z,9.73
2022-08-19T17:53:05.585Z,11.13
2022-08-19T17:55:57.118Z,16.40
2022-08-19T17:58:54.403Z,10.13
2022-08-19T18:01:54.455Z,9.10
2022-08-19T18:04:48.801Z,10.73
2022-08-19T18:07:44.641Z,10.57
2022-08-19T18:10:36.552Z,10.93
2022-08-19T18:13:27.732Z,10.40
2022-08-19T18:16:20.818Z,10.13
2022-08-19T18:19:12.143Z,9.97
2022-08-19T18:22:03.449Z,9.73
2022-08-19T18:24:56.144Z,8.67
2022-08-19T18:27:47.815Z,9.37
2022-08-19T18:30:39.219Z,9.20
2022-08-19T18:33:30.653Z,9.53
2022-08-19T18:36:50.117Z,8.80
2022-08-19T18:39:50.816Z,10.03
2022-08-19T18:43:18.694Z,9.40
2022-08-19T18:46:27.305Z,10.70
2022-08-19T18:49:25.694Z,10.23
2022-08-19T18:52:17.209Z,9.53
2022-08-19T18:55:08.941Z,9.67
2022-08-19T18:58:02.753Z,10.33
2022-08-19T19:00:57.743Z,10.43
2022-08-19T19:04:17.716Z,10.83
2022-08-19T19:07:11.605Z,11.20
2022-08-19T19:10:02.995Z,10.77
2022-08-19T19:12:54.522Z,11.33
2022-08-19T19:15:47.312Z,12.80
2022-08-19T19:18:38.583Z,11.70
2022-08-19T19:21:34.084Z,11.73
2022-08-19T19:24:28.850Z,12.70
2022-08-19T19:27:21.324Z,12.43
2022-08-19T19:30:16.416Z,12.27
2022-08-19T19:33:08.991Z,13.33
2022-08-19T19:36:00.020Z,13.17
2022-08-19T19:38:51.303Z,13.60
2022-08-19T19:41:42.820Z,12.97
2022-08-19T19:44:34.215Z,14.57
2022-08-19T19:47:30.333Z,14.27
2022-08-19T19:50:22.979Z,15.17
2022-08-19T19:53:15.102Z,14.70
2022-08-19T19:56:06.565Z,15.33
2022-08-19T19:58:58.083Z,15.50
2022-08-19T20:01:50.486Z,17.70
2022-08-19T20:04:45.831Z,15.27
2022-08-19T20:07:56.749Z,15.50
2022-08-19T20:10:48.194Z,15.97
2022-08-19T20:13:40.704Z,15.07
2022-08-19T20:16:33.102Z,15.53
2022-08-19T20:19:26.105Z,18.27
2022-08-19T20:22:18.338Z,16.27
2022-08-19T20:25:12.148Z,16.80
2022-08-19T20:28:05.765Z,18.00
2022-08-19T20:30:57.420Z,17.20
2022-08-19T20:33:49.793Z,18.00
2022-08-19T20:36:41.187Z,16.33
2022-08-19T20:39:32.348Z,17.77
2022-08-19T20:42:24.896Z,18.13
2022-08-19T20:45:26.725Z,17.07
2022-08-19T20:48:25.655Z,18.07
2022-08-19T20:51:16.987Z,18.57
2022-08-19T20:54:08.101Z,19.73
2022-08-19T20:56:59.230Z,20.77
2022-08-19T20:59:51.881Z,19.27
2022-08-19T21:02:43.214Z,20.53
2022-08-19T21:05:34.346Z,21.13
2022-08-19T21:08:27.627Z,23.10
2022-08-19T21:11:20.735Z,22.53
2022-08-19T21:14:12.863Z,23.87
2022-08-19T21:17:05.315Z,25.93
2022-08-19T21:19:56.478Z,25.00
2022-08-19T21:22:47.591Z,28.00
2022-08-19T21:25:38.904Z,28.00
2022-08-19T21:28:36.253Z,23.67
2022-08-19T21:31:27.893Z,23.37
2022-08-19T21:34:20.480Z,21.77
2022-08-19T21:37:24.955Z,23.17
2022-08-19T21:40:16.736Z,21.17
2022-08-19T21:43:08.177Z,21.50
2022-08-19T21:45:59.229Z,20.13
2022-08-19T21:48:50.407Z,20.40
2022-08-19T21:51:43.289Z,21.57
2022-08-19T21:54:38.516Z,22.13
2022-08-19T21:57:29.920Z,23.00
2022-08-19T22:00:23.643Z,22.73
2022-08-19T22:03:17.671Z,20.97
2022-08-19T22:06:09.442Z,21.30
2022-08-19T22:09:01.896Z,22.03
2022-08-19T22:11:53.165Z,22.83
2022-08-19T22:14:44.415Z,22.70
2022-08-19T22:17:35.685Z,24.43
2022-08-19T22:20:28.458Z,23.43
2022-08-19T22:23:19.737Z,23.50
2022-08-19T22:26:12.583Z,22.60
2022-08-19T22:29:04.420Z,23.43
2022-08-19T22:31:58.159Z,23.17
2022-08-19T22:34:49.868Z,24.03
2022-08-19T22:37:41.889Z,22.63
2022-08-19T22:40:33.228Z,22.53
2022-08-19T22:43:28.566Z,22.77
2022-08-19T22:46:19.867Z,23.10
2022-08-19T22:49:11.055Z,22.77
2022-08-19T22:52:18.197Z,23.40
2022-08-19T22:55:09.532Z,23.63
2022-08-19T22:58:00.997Z,21.80
2022-08-19T23:00:53.621Z,22.70
2022-08-19T23:03:44.811Z,22.03
2022-08-19T23:06:40.264Z,23.47
2022-08-19T23:09:33.111Z,23.40
2022-08-19T23:12:30.170Z,23.60
2022-08-19T23:15:24.562Z,23.20
2022-08-19T23:18:17.328Z,23.00
2022-08-19T23:21:09.562Z,24.13
2022-08-19T23:24:00.636Z,24.33
2022-08-19T23:27:09.431Z,24.90
2022-08-19T23:30:18.172Z,23.50
2022-08-19T23:33:14.842Z,24.63
2022-08-19T23:36:08.867Z,24.27
2022-08-19T23:39:00.932Z,25.60
2022-08-19T23:41:52.783Z,23.23
2022-08-19T23:44:51.669Z,23.20
2022-08-19T23:47:44.713Z,22.03
2022-08-19T23:50:36.271Z,21.90
2022-08-19T23:53:29.511Z,22.07
2022-08-19T23:56:21.540Z,22.67
2022-08-19T23:59:12.684Z,23.33
